createdAt,value
2022-11-25T00:00:29.912Z,2.80
2022-11-25T00:03:17.672Z,2.95
2022-11-25T00:06:14.519Z,2.58
2022-11-25T00:09:08.109Z,2.83
2022-11-25T00:11:55.690Z,2.67
2022-11-25T00:14:43.274Z,3.03
2022-11-25T00:17:30.902Z,2.88
2022-11-25T00:20:21.210Z,2.65
2022-11-25T00:23:08.879Z,2.75
2022-11-25T00:25:56.397Z,2.60
2022-11-25T00:28:45.809Z,2.08
2022-11-25T00:31:35.565Z,3.08
2022-11-25T00:34:23.277Z,2.10
2022-11-25T00:37:10.877Z,2.85
2022-11-25T00:39:59.045Z,2.40
2022-11-25T00:43:05.313Z,2.45
2022-11-25T00:45:53.067Z,2.78
2022-11-25T00:48:40.730Z,2.25
2022-11-25T00:51:28.424Z,2.35
2022-11-25T00:54:16.154Z,2.88
2022-11-25T00:57:04.135Z,1.92
2022-11-25T00:59:51.960Z,2.40
2022-11-25T01:02:42.080Z,2.08
2022-11-25T01:05:29.764Z,3.05
2022-11-25T01:08:17.441Z,2.95
2022-11-25T01:11:14.920Z,2.13
2022-11-25T01:14:02.531Z,2.50
2022-11-25T01:16:50.438Z,2.50
2022-11-25T01:19:40.294Z,2.28
2022-11-25T01:22:27.971Z,2.05
2022-11-25T01:25:15.576Z,2.42
2022-11-25T01:28:05.118Z,2.80
2022-11-25T01:31:07.108Z,2.85
2022-11-25T01:34:00.314Z,2.45
2022-11-25T01:36:48.012Z,2.67
2022-11-25T01:39:35.700Z,2.15
2022-11-25T01:42:23.299Z,2.85
2022-11-25T01:45:25.534Z,2.47
2022-11-25T01:48:26.132Z,2.63
2022-11-25T01:51:28.236Z,2.80
2022-11-25T01:54:20.529Z,2.67
2022-11-25T01:57:15.319Z,2.95
2022-11-25T02:00:05.474Z,2.50
2022-11-25T02:03:06.381Z,3.33
2022-11-25T02:06:06.398Z,3.88
2022-11-25T02:09:01.401Z,3.60
2022-11-25T02:11:49.421Z,2.92
2022-11-25T02:14:37.405Z,2.65
2022-11-25T02:17:25.473Z,3.50
2022-11-25T02:20:22.744Z,3.55
2022-11-25T02:23:26.415Z,2.75
2022-11-25T02:26:15.941Z,2.72
2022-11-25T02:29:03.651Z,2.50
2022-11-25T02:31:51.522Z,3.13
2022-11-25T02:34:47.785Z,3.00
2022-11-25T02:37:35.447Z,3.47
2022-11-25T02:40:23.997Z,3.50
2022-11-25T02:43:11.688Z,3.10
2022-11-25T02:46:04.867Z,3.30
2022-11-25T02:49:10.401Z,3.92
2022-11-25T02:51:58.851Z,2.40
2022-11-25T02:54:49.420Z,2.90
2022-11-25T02:57:37.165Z,3.08
2022-11-25T03:00:25.137Z,3.42
2022-11-25T03:03:13.925Z,4.18
2022-11-25T03:06:02.136Z,3.55
2022-11-25T03:08:49.817Z,4.07
2022-11-25T03:11:57.236Z,4.07
2022-11-25T03:14:45.444Z,3.55
2022-11-25T03:17:33.227Z,4.22
2022-11-25T03:20:20.999Z,3.75
2022-11-25T03:23:08.810Z,4.32
2022-11-25T03:25:56.443Z,3.10
2022-11-25T03:28:44.029Z,3.63
2022-11-25T03:31:32.830Z,3.65
2022-11-25T03:34:20.673Z,5.20
2022-11-25T03:37:09.296Z,3.20
2022-11-25T03:39:58.082Z,4.50
2022-11-25T03:42:46.049Z,3.08
2022-11-25T03:45:34.547Z,3.08
2022-11-25T03:48:25.469Z,4.85
2022-11-25T03:51:13.405Z,4.65
2022-11-25T03:54:01.908Z,4.43
2022-11-25T03:56:59.188Z,7.45
2022-11-25T04:02:38.832Z,3.80
2022-11-25T04:05:26.542Z,5.75
2022-11-25T04:08:19.800Z,5.68
2022-11-25T04:11:07.606Z,4.30
2022-11-25T04:14:00.543Z,4.30
2022-11-25T04:16:48.453Z,5.20
2022-11-25T04:19:36.275Z,5.25
2022-11-25T04:22:24.203Z,3.80
2022-11-25T04:25:12.637Z,4.07
2022-11-25T04:28:00.910Z,5.22
2022-11-25T04:30:52.993Z,5.72
2022-11-25T04:33:40.738Z,5.07
2022-11-25T04:36:29.270Z,5.57
2022-11-25T04:39:17.022Z,6.72
2022-11-25T04:42:23.596Z,6.97
2022-11-25T04:45:24.433Z,3.75
2022-11-25T04:48:14.740Z,7.00
2022-11-25T04:51:02.596Z,4.88
2022-11-25T04:53:50.310Z,6.10
2022-11-25T04:56:38.195Z,6.50
2022-11-25T04:59:42.113Z,4.70
2022-11-25T05:02:32.218Z,6.88
2022-11-25T05:05:30.096Z,5.65
2022-11-25T05:08:17.840Z,4.07
2022-11-25T05:11:05.685Z,6.53
2022-11-25T05:13:53.744Z,6.15
2022-11-25T05:16:41.477Z,4.72
2022-11-25T05:19:31.073Z,7.03
2022-11-25T05:22:24.699Z,6.03
2022-11-25T05:25:12.727Z,5.55
2022-11-25T05:28:10.365Z,4.88
2022-11-25T05:30:58.567Z,7.03
2022-11-25T05:33:46.358Z,5.40
2022-11-25T05:36:35.707Z,7.25
2022-11-25T05:39:24.558Z,5.13
2022-11-25T05:42:47.571Z,7.93
2022-11-25T05:45:35.268Z,6.72
2022-11-25T05:48:25.742Z,6.05
2022-11-25T05:51:13.938Z,4.85
2022-11-25T05:54:02.019Z,6.72
2022-11-25T05:56:51.974Z,6.13
2022-11-25T05:59:58.505Z,4.63
2022-11-25T06:03:03.045Z,6.60
2022-11-25T06:05:51.541Z,5.22
2022-11-25T06:08:40.237Z,6.53
2022-11-25T06:11:29.404Z,7.07
2022-11-25T06:14:20.079Z,6.68
2022-11-25T06:17:10.316Z,5.00
2022-11-25T06:20:08.692Z,3.97
2022-11-25T06:22:58.843Z,5.55
2022-11-25T06:25:52.728Z,4.47
2022-11-25T06:28:40.967Z,7.70
2022-11-25T06:31:30.224Z,8.45
2022-11-25T06:34:31.894Z,4.72
2022-11-25T06:37:21.788Z,6.28
2022-11-25T06:40:12.930Z,5.65
2022-11-25T06:43:01.045Z,5.38
2022-11-25T06:45:48.962Z,5.57
2022-11-25T06:48:37.890Z,9.60
2022-11-25T06:51:26.099Z,6.38
2022-11-25T06:54:14.235Z,5.53
2022-11-25T06:57:02.373Z,8.18
2022-11-25T06:59:51.580Z,7.32
2022-11-25T07:02:44.003Z,6.80
2022-11-25T07:05:37.535Z,6.57
2022-11-25T07:08:32.300Z,5.47
2022-11-25T07:11:27.219Z,5.85
2022-11-25T07:14:16.986Z,7.97
2022-11-25T07:17:11.586Z,5.68
2022-11-25T07:20:00.033Z,5.85
2022-11-25T07:22:48.107Z,5.20
2022-11-25T07:25:37.768Z,6.25
2022-11-25T07:28:26.001Z,7.28
2022-11-25T07:31:25.085Z,5.53
2022-11-25T07:34:20.165Z,6.10
2022-11-25T07:37:08.298Z,5.88
2022-11-25T07:39:56.209Z,5.88
2022-11-25T07:42:44.852Z,6.22
2022-11-25T07:45:35.928Z,8.77
2022-11-25T07:48:29.288Z,6.70
2022-11-25T07:51:29.326Z,6.05
2022-11-25T07:54:17.834Z,5.93
2022-11-25T07:57:05.725Z,5.93
2022-11-25T07:59:53.615Z,5.60
2022-11-25T08:02:41.516Z,5.85
2022-11-25T08:05:29.455Z,7.78
2022-11-25T08:08:17.606Z,5.13
2022-11-25T08:11:10.826Z,5.80
2022-11-25T08:13:59.921Z,5.70
2022-11-25T08:16:47.764Z,6.07
2022-11-25T08:19:37.076Z,5.65
2022-11-25T08:22:25.156Z,4.72
2022-11-25T08:25:15.695Z,5.05
2022-11-25T08:28:03.679Z,11.65
2022-11-25T08:30:51.670Z,7.88
2022-11-25T08:33:40.090Z,6.60
2022-11-25T08:36:30.687Z,6.72
2022-11-25T08:39:51.940Z,5.97
2022-11-25T08:42:28.858Z,5.15
2022-11-25T08:45:16.857Z,5.57
2022-11-25T08:48:04.861Z,5.22
2022-11-25T08:50:55.303Z,6.65
2022-11-25T08:53:45.433Z,7.70
2022-11-25T08:56:33.673Z,5.72
2022-11-25T08:59:23.031Z,6.45
2022-11-25T09:02:15.157Z,5.47
2022-11-25T09:05:03.890Z,8.18
2022-11-25T09:07:51.963Z,7.05
2022-11-25T09:10:40.880Z,5.63
2022-11-25T09:13:29.168Z,5.50
2022-11-25T09:16:17.314Z,5.85
2022-11-25T09:19:06.944Z,5.15
2022-11-25T09:21:55.284Z,6.70
2022-11-25T09:24:45.507Z,5.47
2022-11-25T09:27:40.824Z,5.82
2022-11-25T09:30:29.200Z,7.05
2022-11-25T09:33:18.059Z,5.32
2022-11-25T09:36:06.502Z,6.00
2022-11-25T09:38:55.091Z,5.70
2022-11-25T09:42:13.812Z,6.53
2022-11-25T09:45:34.763Z,5.40
2022-11-25T09:48:53.281Z,4.78
2022-11-25T09:51:50.095Z,4.35
2022-11-25T09:54:40.406Z,5.78
2022-11-25T09:57:56.382Z,4.28
2022-11-25T10:00:49.992Z,7.22
2022-11-25T10:03:49.460Z,4.97
2022-11-25T10:06:49.428Z,5.75
2022-11-25T10:09:41.951Z,5.63
2022-11-25T10:12:36.714Z,5.72
2022-11-25T11:56:55.468Z,4.90
2022-11-25T11:59:49.131Z,5.47
2022-11-25T12:03:00.966Z,5.03
2022-11-25T12:05:54.299Z,4.53
2022-11-25T12:08:56.617Z,7.07
2022-11-25T12:11:50.089Z,6.13
2022-11-25T12:14:46.784Z,5.35
2022-11-25T12:17:46.798Z,5.82
2022-11-25T12:20:41.872Z,5.78
2022-11-25T12:23:43.201Z,7.13
2022-11-25T12:26:43.170Z,4.85
2022-11-25T12:29:41.402Z,5.55
2022-11-25T12:32:38.149Z,5.25
2022-11-25T12:36:03.197Z,6.10
2022-11-25T12:39:08.585Z,5.75
2022-11-25T12:42:01.341Z,6.03
2022-11-25T12:45:04.228Z,6.45
2022-11-25T12:47:53.550Z,5.25
2022-11-25T12:50:52.730Z,6.70
2022-11-25T12:53:54.578Z,4.95
2022-11-25T12:57:17.879Z,5.78
2022-11-25T13:00:41.185Z,5.47
2022-11-25T13:03:42.084Z,5.78
2022-11-25T13:06:41.277Z,5.20
2022-11-25T13:10:00.039Z,6.38
2022-11-25T13:13:06.941Z,5.57
2022-11-25T13:15:56.888Z,6.68
2022-11-25T13:18:45.583Z,4.90
2022-11-25T13:21:33.366Z,5.13
2022-11-25T13:24:39.062Z,6.03
2022-11-25T13:27:31.526Z,6.32
2022-11-25T13:30:34.568Z,3.78
2022-11-25T13:33:25.286Z,4.38
2022-11-25T13:36:18.928Z,4.70
2022-11-25T13:39:15.318Z,11.68
2022-11-25T13:42:18.484Z,4.10
2022-11-25T13:45:44.568Z,4.68
2022-11-25T13:48:58.988Z,3.50
2022-11-25T13:53:42.012Z,3.15
2022-11-25T13:56:36.481Z,4.25
2022-11-25T13:59:48.823Z,3.97
2022-11-25T14:02:45.659Z,3.05
2022-11-25T14:05:52.406Z,4.85
2022-11-25T14:09:01.565Z,5.17
2022-11-25T14:12:14.307Z,3.58
2022-11-25T14:15:30.503Z,4.28
2022-11-25T14:19:35.185Z,3.30
2022-11-25T14:22:24.300Z,5.03
2022-11-25T14:25:25.557Z,3.50
2022-11-25T14:28:44.264Z,4.82
2022-11-25T14:31:45.824Z,4.50
2022-11-25T14:35:04.339Z,4.90
2022-11-25T14:38:09.238Z,5.05
2022-11-25T14:41:19.650Z,3.92
2022-11-25T14:44:15.838Z,4.68
2022-11-25T14:47:06.561Z,4.07
2022-11-25T14:50:26.846Z,4.07
2022-11-25T14:53:14.376Z,5.55
2022-11-25T14:56:12.933Z,4.93
2022-11-25T14:59:04.818Z,5.15
2022-11-25T15:02:06.133Z,4.82
2022-11-25T15:05:28.419Z,4.45
2022-11-25T15:08:24.667Z,3.90
2022-11-25T15:11:24.714Z,4.00
2022-11-25T15:14:34.652Z,4.88
2022-11-25T15:17:33.468Z,3.33
2022-11-25T15:20:35.644Z,4.47
2022-11-25T15:23:35.100Z,4.22
2022-11-25T15:26:34.210Z,4.25
2022-11-25T15:29:40.772Z,4.20
2022-11-25T15:32:40.219Z,4.75
2022-11-25T15:35:34.824Z,4.93
2022-11-25T15:38:44.480Z,8.63
2022-11-25T15:42:33.973Z,3.65
2022-11-25T15:45:36.514Z,3.63
2022-11-25T15:48:31.481Z,3.70
2022-11-25T15:51:36.281Z,3.55
2022-11-25T15:54:41.186Z,3.85
2022-11-25T15:57:36.011Z,4.80
2022-11-25T16:00:33.299Z,4.63
2022-11-25T16:03:24.515Z,5.13
2022-11-25T16:06:31.099Z,5.25
2022-11-25T16:09:30.804Z,4.72
2022-11-25T16:12:21.185Z,4.22
2022-11-25T16:15:20.942Z,5.75
2022-11-25T16:18:32.808Z,6.78
2022-11-25T16:21:25.688Z,6.70
2022-11-25T16:24:49.832Z,5.50
2022-11-25T16:27:45.970Z,5.05
2022-11-25T16:30:39.998Z,4.65
2022-11-25T16:33:36.630Z,5.68
2022-11-25T16:36:32.528Z,4.18
2022-11-25T16:39:28.464Z,7.15
2022-11-25T16:42:34.167Z,5.63
2022-11-25T16:45:28.709Z,4.57
2022-11-25T16:48:28.397Z,4.25
2022-11-25T16:51:21.709Z,5.35
2022-11-25T16:54:14.217Z,5.25
2022-11-25T16:57:18.387Z,3.35
2022-11-25T17:00:17.080Z,5.22
2022-11-25T17:03:10.048Z,3.67
2022-11-25T17:06:24.475Z,3.47
2022-11-25T17:12:01.199Z,5.40
2022-11-25T17:14:49.976Z,4.47
2022-11-25T17:17:40.143Z,4.47
2022-11-25T17:20:28.590Z,5.57
2022-11-25T17:23:18.120Z,6.85
2022-11-25T17:26:12.319Z,4.00
2022-11-25T17:34:02.650Z,3.78
2022-11-25T17:36:55.866Z,3.47
2022-11-25T17:39:55.420Z,4.22
2022-11-25T17:42:58.389Z,3.35
2022-11-25T17:45:54.168Z,3.80
2022-11-25T17:48:57.529Z,3.60
2022-11-25T17:52:32.661Z,3.30
2022-11-25T17:56:00.505Z,3.08
2022-11-25T17:58:48.402Z,3.90
2022-11-25T18:01:36.261Z,2.95
2022-11-25T18:04:26.133Z,2.90
2022-11-25T18:07:13.867Z,5.97
2022-11-25T18:10:01.569Z,4.35
2022-11-25T18:12:53.425Z,3.63
2022-11-25T18:15:41.161Z,5.80
2022-11-25T18:18:28.903Z,3.95
2022-11-25T18:21:16.630Z,3.45
2022-11-25T18:24:04.712Z,3.85
2022-11-25T18:26:53.343Z,3.60
2022-11-25T18:29:40.989Z,3.95
2022-11-25T18:32:28.602Z,3.80
2022-11-25T18:35:24.213Z,4.53
2022-11-25T18:38:12.405Z,3.40
2022-11-25T18:41:01.393Z,5.38
2022-11-25T18:43:49.146Z,3.90
2022-11-25T18:46:39.730Z,3.80
2022-11-25T18:49:27.415Z,3.17
2022-11-25T18:52:15.098Z,3.67
2022-11-25T18:55:02.797Z,5.35
2022-11-25T18:57:52.206Z,4.82
2022-11-25T19:00:39.890Z,5.07
2022-11-25T19:03:27.702Z,5.55
2022-11-25T19:06:15.412Z,5.30
2022-11-25T19:09:04.055Z,5.93
2022-11-25T19:11:54.860Z,7.22
2022-11-25T19:14:42.850Z,10.07
2022-11-25T19:17:30.476Z,6.65
2022-11-25T19:20:20.621Z,6.53
2022-11-25T19:23:18.167Z,4.57
2022-11-25T19:26:14.083Z,5.13
2022-11-25T19:29:04.196Z,5.55
2022-11-25T19:31:54.118Z,5.63
2022-11-25T19:34:44.618Z,6.75
2022-11-25T19:37:32.491Z,6.07
2022-11-25T19:40:22.485Z,7.07
2022-11-25T19:43:10.151Z,6.93
2022-11-25T19:45:58.546Z,7.63
2022-11-25T19:48:46.274Z,5.80
2022-11-25T19:51:34.997Z,5.85
2022-11-25T19:54:22.630Z,5.53
2022-11-25T19:57:22.572Z,5.03
2022-11-25T20:00:13.005Z,6.10
2022-11-25T20:03:04.879Z,5.18
2022-11-25T20:05:54.963Z,4.57
2022-11-25T20:08:46.537Z,3.92
2022-11-25T20:11:37.697Z,5.32
2022-11-25T20:14:25.775Z,4.90
2022-11-25T20:17:20.776Z,5.50
2022-11-25T20:20:19.208Z,5.85
2022-11-25T20:23:13.831Z,4.57
2022-11-25T20:26:01.607Z,4.72
2022-11-25T20:28:49.361Z,7.10
2022-11-25T20:31:37.199Z,5.38
2022-11-25T20:34:51.538Z,5.15
2022-11-25T20:37:58.093Z,4.03
2022-11-25T20:44:15.665Z,4.28
2022-11-25T20:47:03.852Z,3.70
2022-11-25T20:49:59.179Z,5.25
2022-11-25T20:52:49.860Z,4.93
2022-11-25T20:55:53.077Z,5.90
2022-11-25T20:58:40.750Z,4.97
2022-11-25T21:01:28.443Z,5.45
2022-11-25T21:04:16.175Z,4.65
2022-11-25T21:07:10.344Z,4.90
2022-11-25T21:09:58.200Z,4.88
2022-11-25T21:12:45.870Z,4.20
2022-11-25T21:15:33.523Z,3.78
2022-11-25T21:18:21.627Z,4.03
2022-11-25T21:21:25.812Z,3.65
2022-11-25T21:24:30.457Z,3.97
2022-11-25T21:27:19.901Z,3.08
2022-11-25T21:30:16.719Z,4.40
2022-11-25T21:33:05.963Z,4.47
2022-11-25T21:35:53.775Z,5.60
2022-11-25T21:38:41.480Z,4.28
2022-11-25T21:41:29.061Z,3.97
2022-11-25T21:44:26.708Z,4.40
2022-11-25T21:47:14.220Z,3.85
2022-11-25T21:50:02.041Z,4.35
2022-11-25T21:52:51.005Z,4.35
2022-11-25T21:55:38.758Z,4.25
2022-11-25T21:58:28.831Z,4.22
2022-11-25T22:01:17.439Z,3.33
2022-11-25T22:04:05.162Z,3.50
2022-11-25T22:06:52.785Z,3.33
2022-11-25T22:09:40.769Z,3.42
2022-11-25T22:12:30.293Z,3.67
2022-11-25T22:15:23.042Z,3.67
2022-11-25T22:18:19.418Z,4.18
2022-11-25T22:21:07.115Z,4.47
2022-11-25T22:23:54.735Z,3.95
2022-11-25T22:26:44.456Z,4.50
2022-11-25T22:29:35.223Z,3.65
2022-11-25T22:32:22.806Z,3.55
2022-11-25T22:35:14.913Z,4.05
2022-11-25T22:38:02.482Z,3.60
2022-11-25T22:40:54.905Z,3.92
2022-11-25T22:43:47.999Z,4.10
2022-11-25T22:46:37.895Z,3.30
2022-11-25T22:49:40.452Z,3.03
2022-11-25T22:52:33.431Z,3.50
2022-11-25T22:55:29.951Z,4.13
2022-11-25T22:58:17.532Z,3.63
2022-11-25T23:01:05.288Z,4.18
2022-11-25T23:03:53.039Z,4.43
2022-11-25T23:06:40.625Z,4.10
2022-11-25T23:09:28.336Z,3.88
2022-11-25T23:12:17.050Z,4.05
2022-11-25T23:15:05.045Z,4.05
2022-11-25T23:17:57.618Z,3.95
2022-11-25T23:20:45.317Z,4.47
2022-11-25T23:23:32.989Z,4.38
2022-11-25T23:26:20.688Z,4.45
2022-11-25T23:29:08.268Z,4.43
2022-11-25T23:31:56.133Z,3.83
2022-11-25T23:34:44.149Z,4.82
2022-11-25T23:37:32.267Z,4.75
2022-11-25T23:40:22.317Z,4.40
2022-11-25T23:43:17.368Z,4.53
2022-11-25T23:46:06.308Z,4.25
2022-11-25T23:48:57.403Z,4.65
2022-11-25T23:51:45.168Z,4.38
2022-11-25T23:54:42.631Z,4.28
2022-11-25T23:57:32.633Z,3.83
